Date,TemperatureHighF,TemperatureAvgF,TemperatureLowF,DewpointHighF,DewpointAvgF,DewpointLowF,HumidityHigh,HumidityAvg,HumidityLow,PressureMaxIn,PressureMinIn,WindSpeedMaxMPH,WindSpeedAvgMPH,GustSpeedMaxMPH,PrecipitationSumIn
2013-3-1,31,29,26,29,27,24,97,93,84,29.99,29.88,12,2,12,0.00
2013-3-2,26,24,22,24,21,19,94,89,78,30.03,29.95,9,2,9,0.00
2013-3-3,25,21,19,20,18,16,94,89,78,30.10,30.01,11,2,12,0.00
2013-3-4,37,26,19,21,16,12,89,67,44,30.23,30.10,11,2,11,0.11
2013-3-5,48,37,26,39,33,20,96,86,68,30.14,29.55,22,3,22,0.38
2013-3-6,32,28,25,32,27,24,97,95,90,30.20,29.64,10,1,11,0.00
2013-3-7,31,29,27,30,28,27,97,96,95,30.35,30.19,8,1,8,0.00
2013-3-8,41,32,25,30,27,24,96,82,58,30.44,30.31,12,2,12,0.23
2013-3-9,59,41,21,35,27,19,96,62,30,30.42,30.20,19,2,21,0.01
2013-3-10,66,54,46,36,32,28,49,42,31,30.21,30.00,26,5,27,0.00
2013-3-11,55,52,50,49,40,32,95,65,44,30.02,29.72,31,6,31,0.13
2013-3-12,50,37,33,49,34,29,97,90,79,30.06,29.76,12,2,13,0.39
2013-3-13,35,29,23,31,25,19,94,86,68,30.25,30.02,19,3,19,0.00
2013-3-14,38,25,21,21,18,14,93,78,40,30.36,30.24,19,3,19,0.00
2013-3-15,55,38,20,38,27,16,91,68,46,30.26,29.92,15,2,18,0.01
2013-3-16,68,52,39,54,45,36,97,80,49,29.92,29.60,21,3,22,0.37
2013-3-17,47,40,36,43,38,35,97,95,86,30.06,29.89,8,1,8,0.06
2013-3-18,47,39,36,42,35,31,96,88,81,30.03,29.77,39,7,39,0.25
2013-3-19,50,41,34,44,26,6,97,62,22,30.06,29.77,29,4,29,0.15
2013-3-20,46,35,26,26,15,8,93,47,26,30.08,29.82,25,4,25,0.00
2013-3-21,27,21,14,24,15,9,93,78,61,30.07,29.87,18,3,18,0.00
2013-3-22,40,24,8,20,13,6,92,68,36,30.15,30.06,14,1,14,0.05
2013-3-23,49,33,21,26,20,17,88,62,32,30.11,29.95,10,1,10,0.00
2013-3-24,36,34,31,33,31,30,95,88,84,29.56,29.40,30,5,32,0.20
2013-3-25,33,30,28,30,28,26,96,91,80,29.85,29.46,18,4,19,0.03
2013-3-26,37,31,28,32,29,26,96,92,75,30.19,29.85,14,3,15,0.00
2013-3-27,38,30,27,31,27,25,94,86,67,30.30,30.19,13,2,14,0.00
2013-3-28,42,34,27,28,26,22,92,72,53,30.33,30.26,15,2,15,0.10
2013-3-29,51,39,28,30,28,24,96,68,38,30.35,30.22,13,1,13,0.00
2013-3-30,58,43,29,34,30,27,91,62,31,30.28,30.03,11,1,11,0.00
2013-3-31,51,47,43,49,43,30,100,86,48,30.03,29.77,21,3,24,0.44